Ammon, Idaho
Current Conditions -  °F | °C
As of 7:53 PM on Tuesday 21 Oct 2014 (Local Time) from KIDA Reporting Station
Broken Clouds Broken Clouds  
Wind Chill: 43°   Ceiling: 3500
Heat Index: 48°   Visibility: 10mi
Dew Point: 35°   Wind: 13mph
Humidity: 61%   Direction: 190°S
Pressure: 30.07"   Gusts: NA
Location:  43.4284°N, 111.925°W
Report Text: KIDA 220153Z AUTO 19011KT 10SM BKN035 BKN070 09/02 A3007 RMK AO2 SLP171 T00890017
Loading
Personal Weather Stations






























Interactive Weather Map New forecast layout! Learn more

10-Day Weather Forecast

Advertisements
Track Severe Weather on mobile